Time;durP1;ratioP1;P1;durP2;ratioP2;P2;SDS_P1;SDS_P2;PMS_P1;PMS_P2;Temp;Humidity;BMP_temperature;BMP_pressure;BME280_temperature;BME280_humidity;BME280_pressure;Samples;Min_cycle;Max_cycle;Signal;HPM_P1;HPM_P2
2022/01/29 00:00:26;;;;;;;;;;;;;;;0.05;100.00;97361.41;1035529;28;19944;-70
2022/01/29 00:00:57;;;;;;;;;;;;;;;0.05;100.00;97358.84;1027319;28;19972;-70
2022/01/29 00:01:27;;;;;;;;;;;;;;;0.05;100.00;97361.41;1027253;28;20311;-70
2022/01/29 00:01:57;;;;;;;;;;;;;;;0.02;100.00;97358.34;1023509;28;19978;-70
2022/01/29 00:02:27;;;;;;;;;;;;;;;0.01;100.00;97362.69;1027189;28;19961;-69
2022/01/29 00:02:58;;;;;;;;;;;;;;;-0.01;100.00;97359.44;1018675;29;19911;-71
2022/01/29 00:03:30;;;;;;;;;;;;;;;-0.02;100.00;97357.84;1027287;28;19953;-70
2022/01/29 00:04:01;;;;;;;;;;;;;;;0.02;100.00;97366.06;1031548;28;19918;-71
2022/01/29 00:04:31;;;;;;;;;;;;;;;-0.01;100.00;97359.44;1032097;28;20332;-70
2022/01/29 00:05:01;;;;;;;;;;;;;;;-0.01;100.00;97362.03;1035101;28;19913;-71
2022/01/29 00:05:32;;;;;;;;;;;;;;;-0.03;100.00;97356.25;1031382;28;20005;-70
2022/01/29 00:06:02;;;;;;;;;;;;;;;-0.05;100.00;97358.16;1027498;28;19910;-72
2022/01/29 00:06:33;;;;;;;;;;;;;;;-0.03;100.00;97353.66;1023433;28;19990;-71
2022/01/29 00:07:03;;;;;;;;;;;;;;;-0.03;100.00;97351.88;1019332;29;19914;-70
2022/01/29 00:07:33;;;;;;;;;;;;;;;-0.02;100.00;97352.69;1019369;29;19937;-71
2022/01/29 00:08:04;;;;;;;;;;;;;;;-0.05;100.00;97353.78;1019548;29;19967;-70
2022/01/29 00:08:34;;;;;;;;;;;;;;;-0.05;100.00;97351.22;1023294;28;19910;-71
2022/01/29 00:09:07;;;;;;;;;;;;;;;-0.06;100.00;97346.22;1027333;28;19945;-70
2022/01/29 00:09:38;;;;;;;;;;;;;;;-0.10;100.00;97347.47;1027649;28;19918;-71
2022/01/29 00:10:09;;;;;;;;;;;;;;;-0.10;100.00;97347.47;1027365;28;20283;-70
2022/01/29 00:10:42;;;;;;;;;;;;;;;-0.07;100.00;97336.84;1019935;29;19975;-70
2022/01/29 00:11:15;;;;;;;;;;;;;;;-0.12;100.00;97346.84;1023857;28;20687;-70
2022/01/29 00:11:45;;;;;;;;;;;;;;;-0.14;100.00;97338.44;1028016;28;20020;-71
2022/01/29 00:12:15;;;;;;;;;;;;;;;-0.15;100.00;97342.78;1033003;28;19913;-70
2022/01/29 00:12:46;;;;;;;;;;;;;;;-0.15;100.00;97332.47;1034757;28;20237;-68
2022/01/29 00:13:16;;;;;;;;;;;;;;;-0.19;100.00;97331.16;1034827;28;19909;-69
2022/01/29 00:13:46;;;;;;;;;;;;;;;-0.20;100.00;97339.06;1027155;28;19910;-70
2022/01/29 00:14:17;;;;;;;;;;;;;;;-0.43;100.00;97307.88;1023440;29;19970;-71
2022/01/29 00:14:47;;;;;;;;;;;;;;;-0.20;100.00;97329.56;1027154;28;20381;-70
2022/01/29 00:15:17;;;;;;;;;;;;;;;-0.20;100.00;97328.72;1023106;28;19926;-70
2022/01/29 00:15:48;;;;;;;;;;;;;;;-0.22;100.00;97330.69;1031464;28;19914;-70
2022/01/29 00:16:18;;;;;;;;;;;;;;;-0.23;100.00;97327.28;1035579;28;19913;-70
2022/01/29 00:16:48;;;;;;;;;;;;;;;-0.24;100.00;97335.97;1035256;28;19918;-70
2022/01/29 00:17:18;;;;;;;;;;;;;;;-0.24;100.00;97334.19;1040158;28;20361;-71
2022/01/29 00:17:49;;;;;;;;;;;;;;;-0.25;100.00;97335.16;1035628;28;19920;-72
2022/01/29 00:18:19;;;;;;;;;;;;;;;-0.26;100.00;97330.19;1031392;28;20156;-70
2022/01/29 00:18:49;;;;;;;;;;;;;;;-0.25;100.00;97332.59;1031224;28;19914;-70
2022/01/29 00:19:20;;;;;;;;;;;;;;;-0.27;100.00;97333.69;1035500;28;19918;-71
2022/01/29 00:19:50;;;;;;;;;;;;;;;-0.53;100.00;97297.66;1035233;28;19981;-70
2022/01/29 00:20:20;;;;;;;;;;;;;;;-0.33;100.00;97327.41;1039557;28;19937;-71
2022/01/29 00:20:51;;;;;;;;;;;;;;;-0.36;100.00;97335.44;1031428;28;19914;-70
2022/01/29 00:21:21;;;;;;;;;;;;;;;-0.38;100.00;97332.22;1027557;28;19914;-70
2022/01/29 00:21:51;;;;;;;;;;;;;;;-0.39;100.00;97329.78;1031677;28;19906;-71
2022/01/29 00:22:21;;;;;;;;;;;;;;;-0.41;100.00;97331.72;1031621;28;19910;-70
2022/01/29 00:22:52;;;;;;;;;;;;;;;-0.42;100.00;97336.06;1034814;28;19906;-70
2022/01/29 00:23:22;;;;;;;;;;;;;;;-0.44;100.00;97330.25;1027296;28;19910;-71
2022/01/29 00:23:52;;;;;;;;;;;;;;;-0.44;100.00;97332.81;1027122;28;19957;-71
2022/01/29 00:24:23;;;;;;;;;;;;;;;-0.47;100.00;97330.53;1031462;28;20458;-70
2022/01/29 00:24:53;;;;;;;;;;;;;;;-0.46;100.00;97324.44;1027148;28;19990;-71
2022/01/29 00:25:23;;;;;;;;;;;;;;;-0.49;100.00;97329.91;1031452;28;19906;-71
2022/01/29 00:25:54;;;;;;;;;;;;;;;-0.45;100.00;97323.47;1031268;28;19918;-71
2022/01/29 00:26:26;;;;;;;;;;;;;;;-0.47;100.00;97327.97;1031344;28;19917;-69
2022/01/29 00:26:56;;;;;;;;;;;;;;;-0.45;100.00;97325.25;1039429;28;20435;-70
2022/01/29 00:27:30;;;;;;;;;;;;;;;-0.46;100.00;97326.22;1039518;28;20326;-71
2022/01/29 00:28:00;;;;;;;;;;;;;;;-0.46;100.00;97321.88;1035562;28;19937;-70
2022/01/29 00:28:33;;;;;;;;;;;;;;;-0.46;100.00;97327.03;1039028;28;20326;-70
2022/01/29 00:29:16;;;;;;;;;;;;;;;-0.44;100.00;97324.28;1035352;28;20856;-70
2022/01/29 00:29:47;;;;;;;;;;;;;;;-0.44;100.00;97327.66;1041828;28;20362;-69
2022/01/29 00:30:17;;;;;;;;;;;;;;;-0.47;100.00;97322.81;1037298;28;19913;-70
2022/01/29 00:30:48;;;;;;;;;;;;;;;-0.49;100.00;97325.56;1027516;28;19910;-70
2022/01/29 00:31:18;;;;;;;;;;;;;;;-0.51;100.00;97321.50;1027380;28;20415;-71
2022/01/29 00:31:49;;;;;;;;;;;;;;;-0.52;100.00;97320.69;1027438;28;19917;-69
2022/01/29 00:32:19;;;;;;;;;;;;;;;-0.49;100.00;97320.41;1027200;28;19910;-71
2022/01/29 00:32:49;;;;;;;;;;;;;;;-0.52;100.00;97322.47;1026478;28;20265;-70
2022/01/29 00:33:19;;;;;;;;;;;;;;;-0.57;100.00;97322.13;1027412;28;19950;-70
2022/01/29 00:33:50;;;;;;;;;;;;;;;-0.61;100.00;97324.19;1027124;28;20169;-71
2022/01/29 00:34:20;;;;;;;;;;;;;;;-0.62;100.00;97319.19;1026976;28;19914;-71
2022/01/29 00:34:50;;;;;;;;;;;;;;;-0.61;100.00;97318.22;1035207;28;19928;-71
2022/01/29 00:35:20;;;;;;;;;;;;;;;-0.62;100.00;97316.63;1031410;28;19996;-72
2022/01/29 00:35:51;;;;;;;;;;;;;;;-0.66;100.00;97318.69;1031286;28;19910;-71
2022/01/29 00:36:21;;;;;;;;;;;;;;;-0.61;100.00;97328.53;1023138;29;19954;-71
2022/01/29 00:36:51;;;;;;;;;;;;;;;-0.61;100.00;97325.97;1019250;29;19915;-71
2022/01/29 00:37:22;;;;;;;;;;;;;;;-0.61;100.00;97325.97;1019319;29;19970;-71
2022/01/29 00:37:52;;;;;;;;;;;;;;;-0.61;100.00;97324.19;1021574;28;20376;-70
2022/01/29 00:38:22;;;;;;;;;;;;;;;-0.64;100.00;97321.09;1023134;28;20309;-70
2022/01/29 00:38:53;;;;;;;;;;;;;;;-0.60;100.00;97327.59;1031210;28;20261;-71
2022/01/29 00:39:23;;;;;;;;;;;;;;;-0.62;100.00;97324.34;1030120;28;20258;-70
2022/01/29 00:39:53;;;;;;;;;;;;;;;-0.63;100.00;97327.91;1031267;28;19913;-71
2022/01/29 00:40:24;;;;;;;;;;;;;;;-0.66;100.00;97323.06;1027166;28;19914;-70
2022/01/29 00:40:54;;;;;;;;;;;;;;;-0.65;100.00;97322.88;1031325;28;19985;-70
2022/01/29 00:41:25;;;;;;;;;;;;;;;-0.65;100.00;97316.94;1023070;28;19981;-70
2022/01/29 00:41:55;;;;;;;;;;;;;;;-0.63;100.00;97322.75;1023501;28;19913;-71
2022/01/29 00:42:25;;;;;;;;;;;;;;;-0.66;100.00;97323.06;1026922;28;20384;-70
2022/01/29 00:42:56;;;;;;;;;;;;;;;-0.69;100.00;97323.34;1026587;28;20268;-71
2022/01/29 00:43:26;;;;;;;;;;;;;;;-0.66;100.00;97323.84;1027226;28;20538;-71
2022/01/29 00:43:56;;;;;;;;;;;;;;;-0.69;100.00;97323.34;1023324;28;19911;-69
2022/01/29 00:44:26;;;;;;;;;;;;;;;-0.68;100.00;97324.97;1022803;28;19907;-70
2022/01/29 00:44:57;;;;;;;;;;;;;;;-0.67;100.00;97324.00;1027251;28;19961;-72
2022/01/29 00:45:27;;;;;;;;;;;;;;;-0.69;100.00;97324.16;1031305;28;19980;-70
2022/01/29 00:45:57;;;;;;;;;;;;;;;-0.68;100.00;97320.59;1035452;28;19916;-71
2022/01/29 00:46:28;;;;;;;;;;;;;;;-0.68;100.00;97325.75;1030952;28;19916;-70
2022/01/29 00:46:58;;;;;;;;;;;;;;;-0.60;100.00;97319.88;1035320;28;19914;-71
2022/01/29 00:47:28;;;;;;;;;;;;;;;-0.60;100.00;97322.44;1027250;28;20328;-70
2022/01/29 00:47:58;;;;;;;;;;;;;;;-0.60;100.00;97317.28;1031176;28;19914;-70
2022/01/29 00:48:29;;;;;;;;;;;;;;;-0.60;100.00;97317.28;1031227;28;19921;-71
2022/01/29 00:48:59;;;;;;;;;;;;;;;-0.52;100.00;97314.75;1031230;28;19921;-70
2022/01/29 00:49:29;;;;;;;;;;;;;;;-0.53;100.00;97313.94;1030953;28;19953;-71
2022/01/29 00:50:00;;;;;;;;;;;;;;;-0.53;100.00;97306.19;1027419;28;20285;-70
2022/01/29 00:50:30;;;;;;;;;;;;;;;-0.52;100.00;97314.75;1027157;28;19937;-70
2022/01/29 00:51:02;;;;;;;;;;;;;;;-0.52;100.00;97314.75;1023059;28;19962;-71
2022/01/29 00:51:32;;;;;;;;;;;;;;;-0.55;100.00;97304.72;1019366;28;19918;-70
2022/01/29 00:52:03;;;;;;;;;;;;;;;-0.55;100.00;97302.16;1027267;28;19933;-71
2022/01/29 00:52:33;;;;;;;;;;;;;;;-0.55;100.00;97302.16;1027168;28;19957;-70
2022/01/29 00:53:03;;;;;;;;;;;;;;;-0.57;100.00;97297.16;1026254;28;19921;-71
2022/01/29 00:53:34;;;;;;;;;;;;;;;-0.56;100.00;97296.19;1023108;29;19947;-71
2022/01/29 00:54:04;;;;;;;;;;;;;;;-0.52;100.00;97300.06;1023027;29;19914;-69
2022/01/29 00:54:34;;;;;;;;;;;;;;;-0.52;100.00;97294.91;1023099;29;20416;-69
2022/01/29 00:55:05;;;;;;;;;;;;;;;-0.53;100.00;97289.94;1031017;28;19977;-69
2022/01/29 00:55:36;;;;;;;;;;;;;;;-0.53;100.00;97289.94;1031352;28;19913;-70
2022/01/29 00:56:09;;;;;;;;;;;;;;;-0.54;100.00;97290.88;1031125;28;19917;-70
2022/01/29 00:56:39;;;;;;;;;;;;;;;-0.54;100.00;97288.28;1031304;28;20392;-71
2022/01/29 00:57:10;;;;;;;;;;;;;;;-0.54;100.00;97285.72;1031274;28;19913;-71
2022/01/29 00:57:40;;;;;;;;;;;;;;;-0.55;100.00;97284.91;1035830;28;20351;-71
2022/01/29 00:58:11;;;;;;;;;;;;;;;-0.54;100.00;97288.28;1030902;28;19912;-70
2022/01/29 00:58:41;;;;;;;;;;;;;;;-0.55;100.00;97284.09;1035215;28;20414;-70
2022/01/29 00:59:11;;;;;;;;;;;;;;;-0.54;100.00;97285.72;1034874;28;19914;-71
2022/01/29 00:59:42;;;;;;;;;;;;;;;-0.55;100.00;97286.69;1031167;28;20109;-70
2022/01/29 01:00:12;;;;;;;;;;;;;;;-0.55;100.00;97292.66;1035179;28;19920;-70
2022/01/29 01:00:44;;;;;;;;;;;;;;;-0.55;100.00;97289.25;1031191;28;19917;-71
2022/01/29 01:01:14;;;;;;;;;;;;;;;-0.54;100.00;97290.88;1035057;28;19974;-70
2022/01/29 01:01:45;;;;;;;;;;;;;;;-0.55;100.00;97284.09;1030984;28;20452;-70
2022/01/29 01:02:15;;;;;;;;;;;;;;;-0.57;100.00;97294.59;1035464;28;19914;-72
2022/01/29 01:02:45;;;;;;;;;;;;;;;-0.57;100.00;97292.00;1034459;28;20362;-69
2022/01/29 01:03:16;;;;;;;;;;;;;;;-0.57;100.00;97281.69;1030575;28;20393;-71
2022/01/29 01:03:46;;;;;;;;;;;;;;;-0.53;100.00;97289.94;1020575;28;20546;-69
2022/01/29 01:04:16;;;;;;;;;;;;;;;-0.53;100.00;97287.34;1019249;28;19948;-68
2022/01/29 01:04:47;;;;;;;;;;;;;;;-0.51;100.00;97283.63;1023123;28;19910;-70
2022/01/29 01:05:17;;;;;;;;;;;;;;;-0.74;100.00;97246.47;1027083;28;19910;-72
2022/01/29 01:05:47;;;;;;;;;;;;;;;-0.50;100.00;97293.00;1022587;29;20364;-70
2022/01/29 01:06:18;;;;;;;;;;;;;;;-0.51;100.00;97286.22;1031079;28;19995;-70
2022/01/29 01:06:48;;;;;;;;;;;;;;;-0.50;100.00;97289.63;1028036;28;20234;-71
2022/01/29 01:07:18;;;;;;;;;;;;;;;-0.51;100.00;97281.06;1031333;28;19920;-71
2022/01/29 01:07:49;;;;;;;;;;;;;;;-0.48;100.00;97285.09;1023091;29;19915;-70
2022/01/29 01:08:19;;;;;;;;;;;;;;;-0.50;100.00;97281.91;1018948;29;19914;-69
2022/01/29 01:08:49;;;;;;;;;;;;;;;-0.52;100.00;97284.59;1027035;28;19906;-69
2022/01/29 01:09:20;;;;;;;;;;;;;;;-0.52;100.00;97287.19;1031009;28;20601;-72
2022/01/29 01:09:50;;;;;;;;;;;;;;;-0.51;100.00;97290.56;1027091;28;20393;-70
2022/01/29 01:10:20;;;;;;;;;;;;;;;-0.50;100.00;97281.91;1023019;28;19921;-70
2022/01/29 01:10:51;;;;;;;;;;;;;;;-0.49;100.00;97278.34;1023001;29;19914;-70
2022/01/29 01:11:21;;;;;;;;;;;;;;;-0.52;100.00;97279.44;1023203;28;19915;-70
2022/01/29 01:11:51;;;;;;;;;;;;;;;-0.52;100.00;97281.22;1022912;28;19922;-70
2022/01/29 01:12:22;;;;;;;;;;;;;;;-0.50;100.00;97272.38;1022059;29;20001;-71
2022/01/29 01:12:52;;;;;;;;;;;;;;;-0.50;100.00;97274.97;1015158;29;19978;-70
2022/01/29 01:13:23;;;;;;;;;;;;;;;-0.50;100.00;97263.84;1021866;29;20282;-71
2022/01/29 01:13:53;;;;;;;;;;;;;;;-0.49;100.00;97273.19;1018756;29;19946;-70
2022/01/29 01:14:24;;;;;;;;;;;;;;;-0.48;100.00;97267.88;1018935;29;19915;-71
2022/01/29 01:14:54;;;;;;;;;;;;;;;-0.50;100.00;97267.22;1019155;29;20254;-69
2022/01/29 01:15:24;;;;;;;;;;;;;;;-0.50;100.00;97266.44;1022894;28;19906;-69
2022/01/29 01:15:55;;;;;;;;;;;;;;;-0.51;100.00;97259.63;1034975;28;20016;-70
2022/01/29 01:16:25;;;;;;;;;;;;;;;-0.48;100.00;97264.47;1035052;28;19909;-70
2022/01/29 01:16:55;;;;;;;;;;;;;;;-0.47;100.00;97263.50;1022869;28;19936;-70
2022/01/29 01:17:26;;;;;;;;;;;;;;;-0.49;100.00;97255.94;1031183;28;20004;-70
2022/01/29 01:17:56;;;;;;;;;;;;;;;-0.50;100.00;97256.91;1026857;28;19910;-70
2022/01/29 01:18:26;;;;;;;;;;;;;;;-0.51;100.00;97257.06;1030873;28;20019;-70
2022/01/29 01:18:57;;;;;;;;;;;;;;;-0.53;100.00;97256.41;1039187;28;19935;-71
2022/01/29 01:19:27;;;;;;;;;;;;;;;-0.54;100.00;97250.47;1030950;28;20171;-70
2022/01/29 01:19:57;;;;;;;;;;;;;;;-0.55;100.00;97258.34;1034859;28;19948;-70
2022/01/29 01:20:28;;;;;;;;;;;;;;;-0.53;100.00;97249.50;1038897;28;20391;-70
2022/01/29 01:20:58;;;;;;;;;;;;;;;-0.51;100.00;97255.28;1026937;28;20434;-70
2022/01/29 01:21:28;;;;;;;;;;;;;;;-0.50;100.00;97250.97;1027005;28;19953;-71
2022/01/29 01:21:59;;;;;;;;;;;;;;;-0.48;100.00;97251.59;1038816;28;19913;-70
2022/01/29 01:22:29;;;;;;;;;;;;;;;-0.51;100.00;97239.00;1026662;28;19917;-70
2022/01/29 01:22:59;;;;;;;;;;;;;;;-0.52;100.00;97247.72;1022598;29;20373;-71
2022/01/29 01:23:30;;;;;;;;;;;;;;;-0.52;100.00;97252.88;1026593;28;20449;-69
2022/01/29 01:24:00;;;;;;;;;;;;;;;-0.52;100.00;97253.66;1026687;28;20361;-71
2022/01/29 01:24:30;;;;;;;;;;;;;;;-0.53;100.00;97246.09;1031033;28;19976;-70
2022/01/29 01:25:01;;;;;;;;;;;;;;;-0.51;100.00;97250.13;1027058;28;19916;-71
2022/01/29 01:25:31;;;;;;;;;;;;;;;-0.50;100.00;97251.75;1030913;28;19910;-70
2022/01/29 01:26:02;;;;;;;;;;;;;;;-0.50;100.00;97250.97;1034861;28;19921;-70
2022/01/29 01:26:32;;;;;;;;;;;;;;;-0.51;100.00;97249.31;1019117;29;19911;-70
2022/01/29 01:27:03;;;;;;;;;;;;;;;-0.48;100.00;97249.00;1023502;28;20408;-70
2022/01/29 01:27:33;;;;;;;;;;;;;;;-0.48;100.00;97239.50;1035231;28;19914;-71
2022/01/29 01:28:03;;;;;;;;;;;;;;;-0.48;100.00;97238.69;1023149;29;20297;-70
2022/01/29 01:28:34;;;;;;;;;;;;;;;-0.49;100.00;97247.41;1021118;29;19915;-70
2022/01/29 01:29:04;;;;;;;;;;;;;;;-0.49;100.00;97247.41;1031186;28;19918;-70
2022/01/29 01:29:34;;;;;;;;;;;;;;;-0.51;100.00;97241.59;1026986;28;19987;-72
2022/01/29 01:30:05;;;;;;;;;;;;;;;-0.48;100.00;97241.28;1026947;28;19914;-69
2022/01/29 01:30:36;;;;;;;;;;;;;;;-0.49;100.00;97239.66;1026814;28;19914;-70
2022/01/29 01:31:06;;;;;;;;;;;;;;;-0.48;100.00;97249.00;1027116;28;19965;-70
2022/01/29 01:31:37;;;;;;;;;;;;;;;-0.50;100.00;97244.03;1023183;29;19942;-71
2022/01/29 01:32:11;;;;;;;;;;;;;;;-0.48;100.00;97249.00;1024033;28;19907;-71
2022/01/29 01:32:42;;;;;;;;;;;;;;;-0.50;100.00;97243.22;1026770;28;20013;-70
2022/01/29 01:33:12;;;;;;;;;;;;;;;-0.49;100.00;97243.06;1026491;28;19914;-70
2022/01/29 01:33:44;;;;;;;;;;;;;;;-0.50;100.00;97245.81;1026802;28;19910;-72
2022/01/29 01:34:15;;;;;;;;;;;;;;;-0.49;100.00;97242.25;1031217;28;19917;-70
2022/01/29 01:34:50;;;;;;;;;;;;;;;-0.52;100.00;97239.97;1022926;29;20328;-70
2022/01/29 01:35:29;;;;;;;;;;;;;;;-0.51;100.00;97241.59;1031352;28;19910;-71
2022/01/29 01:36:03;;;;;;;;;;;;;;;-0.52;100.00;97248.53;1027062;28;19914;-71
2022/01/29 01:36:39;;;;;;;;;;;;;;;-0.51;100.00;97241.59;1022722;29;19922;-70
2022/01/29 01:37:15;;;;;;;;;;;;;;;-0.48;100.00;97247.25;1023093;29;19997;-72
2022/01/29 01:37:59;;;;;;;;;;;;;;;-0.47;100.00;97242.88;1026858;28;19910;-69
2022/01/29 01:39:05;;;;;;;;;;;;;;;-0.47;100.00;97242.88;1030931;28;19913;-70
2022/01/29 01:39:38;;;;;;;;;;;;;;;-0.48;100.00;97239.50;1018826;29;19922;-70
2022/01/29 01:40:09;;;;;;;;;;;;;;;-0.49;100.00;97237.09;1022954;29;19914;-70
2022/01/29 01:40:43;;;;;;;;;;;;;;;-0.49;100.00;97239.66;1026929;28;19990;-72
2022/01/29 01:41:17;;;;;;;;;;;;;;;-0.51;100.00;97239.81;1018946;29;19918;-71
2022/01/29 01:42:07;;;;;;;;;;;;;;;-0.50;100.00;97238.88;1022914;29;19907;-70
2022/01/29 01:42:37;;;;;;;;;;;;;;;-0.47;100.00;97232.56;1018763;29;20292;-67
2022/01/29 01:43:08;;;;;;;;;;;;;;;-0.44;100.00;97234.03;1022099;29;19967;-70
2022/01/29 01:43:38;;;;;;;;;;;;;;;-0.47;100.00;97235.16;1022951;29;19911;-70
2022/01/29 01:44:13;;;;;;;;;;;;;;;-0.49;100.00;97237.09;1022848;29;19910;-70
2022/01/29 01:44:46;;;;;;;;;;;;;;;-0.49;100.00;97230.16;1030882;28;20277;-71
2022/01/29 01:45:16;;;;;;;;;;;;;;;-0.48;100.00;97231.78;1026867;28;19913;-71
2022/01/29 01:45:47;;;;;;;;;;;;;;;-0.50;100.00;97225.97;1026964;28;19937;-70
2022/01/29 01:46:17;;;;;;;;;;;;;;;-0.49;100.00;97231.94;1030765;28;20372;-70
2022/01/29 01:46:47;;;;;;;;;;;;;;;-0.49;100.00;97230.16;1026751;28;20367;-70
2022/01/29 01:47:18;;;;;;;;;;;;;;;-0.50;100.00;97225.97;1015184;29;19961;-70
2022/01/29 01:47:48;;;;;;;;;;;;;;;-0.50;100.00;97225.97;1018923;29;19946;-70
2022/01/29 01:48:18;;;;;;;;;;;;;;;-0.49;100.00;97222.44;1022921;29;20076;-70
2022/01/29 01:48:49;;;;;;;;;;;;;;;-0.49;100.00;97224.19;1026951;28;19921;-71
2022/01/29 01:49:19;;;;;;;;;;;;;;;-0.50;100.00;97222.59;1026659;28;20028;-70
2022/01/29 01:49:49;;;;;;;;;;;;;;;-0.50;100.00;97222.59;1022694;29;19911;-70
2022/01/29 01:50:21;;;;;;;;;;;;;;;-0.51;100.00;97216.59;1030903;28;19910;-70
2022/01/29 01:50:51;;;;;;;;;;;;;;;-0.53;100.00;97210.81;1034983;28;19917;-71
2022/01/29 01:51:22;;;;;;;;;;;;;;;-0.55;100.00;97212.72;1026759;28;19912;-71
2022/01/29 01:51:52;;;;;;;;;;;;;;;-0.53;100.00;97215.97;1022914;29;19906;-70
2022/01/29 01:52:22;;;;;;;;;;;;;;;-0.52;100.00;97207.28;1019020;29;19959;-71
2022/01/29 01:52:53;;;;;;;;;;;;;;;-0.50;100.00;97210.50;1022027;29;19911;-70
2022/01/29 01:53:24;;;;;;;;;;;;;;;-0.51;100.00;97208.88;1022686;28;20365;-70
2022/01/29 01:53:54;;;;;;;;;;;;;;;-0.51;100.00;97208.06;1027590;28;20376;-71
2022/01/29 01:54:25;;;;;;;;;;;;;;;-0.51;100.00;97208.88;1026218;28;19945;-69
2022/01/29 01:54:55;;;;;;;;;;;;;;;-0.51;100.00;97210.66;1025680;28;20276;-71
2022/01/29 01:55:25;;;;;;;;;;;;;;;-0.52;100.00;97211.63;1027269;28;20061;-70
2022/01/29 01:55:56;;;;;;;;;;;;;;;-0.53;100.00;97205.66;1031527;28;19980;-71
2022/01/29 01:56:26;;;;;;;;;;;;;;;-0.52;100.00;97203.88;1031272;28;19906;-69
2022/01/29 01:56:56;;;;;;;;;;;;;;;-0.50;100.00;97201.97;1027246;28;19917;-70
2022/01/29 01:57:27;;;;;;;;;;;;;;;-0.48;100.00;97194.88;1022813;29;19914;-70
2022/01/29 01:57:57;;;;;;;;;;;;;;;-0.47;100.00;97193.91;1027179;28;19913;-70
2022/01/29 01:58:28;;;;;;;;;;;;;;;-0.48;100.00;97193.09;1019533;29;19907;-70
2022/01/29 01:58:58;;;;;;;;;;;;;;;-0.47;100.00;97196.47;1027600;28;20493;-72
2022/01/29 01:59:28;;;;;;;;;;;;;;;-0.48;100.00;97197.44;1035151;28;19940;-72
2022/01/29 01:59:59;;;;;;;;;;;;;;;-0.46;100.00;97195.53;1035544;28;19913;-70
2022/01/29 02:00:29;;;;;;;;;;;;;;;-0.47;100.00;97193.91;1031350;28;20012;-67
2022/01/29 02:01:00;;;;;;;;;;;;;;;-0.49;100.00;97203.56;1027504;28;19969;-68
2022/01/29 02:01:30;;;;;;;;;;;;;;;-0.50;100.00;97199.41;1027093;28;19922;-69
2022/01/29 02:02:00;;;;;;;;;;;;;;;-0.48;100.00;97194.88;1031575;28;20110;-69
2022/01/29 02:02:31;;;;;;;;;;;;;;;-0.48;100.00;97200.03;1031226;28;19914;-70
2022/01/29 02:03:01;;;;;;;;;;;;;;;-0.48;100.00;97197.44;1026883;28;19916;-70
2022/01/29 02:03:32;;;;;;;;;;;;;;;-0.50;100.00;97204.56;1035295;28;20402;-70
2022/01/29 02:04:03;;;;;;;;;;;;;;;-0.48;100.00;97205.97;1027425;28;19919;-71
2022/01/29 02:04:33;;;;;;;;;;;;;;;-0.48;100.00;97202.59;1015608;29;19922;-70
2022/01/29 02:05:03;;;;;;;;;;;;;;;-0.49;100.00;97206.16;1023473;29;20001;-70
2022/01/29 02:05:34;;;;;;;;;;;;;;;-0.49;100.00;97196.66;1027475;28;20443;-70
2022/01/29 02:06:04;;;;;;;;;;;;;;;-0.49;100.00;97186.34;1023328;29;20001;-68
2022/01/29 02:06:34;;;;;;;;;;;;;;;-0.50;100.00;97189.09;1019471;29;19953;-70
2022/01/29 02:07:05;;;;;;;;;;;;;;;-0.51;100.00;97187.44;1016580;29;19951;-69
2022/01/29 02:07:35;;;;;;;;;;;;;;;-0.51;100.00;97190.03;1027577;28;19915;-70
2022/01/29 02:08:06;;;;;;;;;;;;;;;-0.52;100.00;97191.00;1027085;28;20355;-71
2022/01/29 02:08:36;;;;;;;;;;;;;;;-0.53;100.00;97189.41;1035196;28;19909;-70
2022/01/29 02:09:07;;;;;;;;;;;;;;;-0.54;100.00;97188.59;1027392;28;20013;-70
2022/01/29 02:09:39;;;;;;;;;;;;;;;-0.52;100.00;97202.13;1031611;28;19909;-70
2022/01/29 02:10:11;;;;;;;;;;;;;;;-0.52;100.00;97188.41;1026872;28;19919;-70
2022/01/29 02:10:45;;;;;;;;;;;;;;;-0.52;100.00;97196.16;1039721;28;19917;-71
2022/01/29 02:11:15;;;;;;;;;;;;;;;-0.53;100.00;97199.72;1031504;28;19970;-70
2022/01/29 02:12:04;;;;;;;;;;;;;;;-0.54;100.00;97198.91;1019422;29;20324;-70
2022/01/29 02:12:51;;;;;;;;;;;;;;;-0.53;100.00;97195.34;1023263;29;19918;-70
2022/01/29 02:13:21;;;;;;;;;;;;;;;-0.53;100.00;97197.94;1023323;29;19914;-70
2022/01/29 02:13:51;;;;;;;;;;;;;;;-0.55;100.00;97199.84;1023531;29;19914;-69
2022/01/29 02:14:26;;;;;;;;;;;;;;;-0.56;100.00;97190.50;1035446;28;19910;-69
2022/01/29 02:15:02;;;;;;;;;;;;;;;-0.52;100.00;97201.31;1035568;28;19936;-70
2022/01/29 02:15:32;;;;;;;;;;;;;;;-0.53;100.00;97195.34;1019498;29;19930;-70
2022/01/29 02:16:04;;;;;;;;;;;;;;;-0.53;100.00;97184.25;1031335;28;20472;-70
2022/01/29 02:16:34;;;;;;;;;;;;;;;-0.52;100.00;97185.84;1031484;28;20024;-70
2022/01/29 02:17:05;;;;;;;;;;;;;;;-0.53;100.00;97181.66;1023306;29;19922;-69
2022/01/29 02:17:35;;;;;;;;;;;;;;;-0.52;100.00;97183.25;1035525;28;19913;-72
2022/01/29 02:18:12;;;;;;;;;;;;;;;-0.51;100.00;97177.13;1027370;28;20341;-70
2022/01/29 02:18:42;;;;;;;;;;;;;;;-0.53;100.00;97174.72;1023392;29;19926;-70
2022/01/29 02:19:13;;;;;;;;;;;;;;;-0.54;100.00;97178.28;1023331;29;19914;-70
2022/01/29 02:19:43;;;;;;;;;;;;;;;-0.54;100.00;97172.28;1027457;28;19918;-71
2022/01/29 02:20:14;;;;;;;;;;;;;;;-0.55;100.00;97173.25;1023141;29;19976;-71
2022/01/29 02:20:44;;;;;;;;;;;;;;;-0.56;100.00;97174.25;1019406;29;19941;-69
2022/01/29 02:21:15;;;;;;;;;;;;;;;-0.56;100.00;97172.47;1020307;29;19957;-70
2022/01/29 02:21:45;;;;;;;;;;;;;;;-0.56;100.00;97171.66;1026553;28;20437;-72
2022/01/29 02:22:16;;;;;;;;;;;;;;;-0.59;100.00;97170.19;1023402;29;19922;-70
2022/01/29 02:22:46;;;;;;;;;;;;;;;-0.57;100.00;97178.59;1034041;28;19925;-70
2022/01/29 02:23:17;;;;;;;;;;;;;;;-0.54;100.00;97172.28;1035429;28;19921;-69
2022/01/29 02:23:49;;;;;;;;;;;;;;;-0.55;100.00;97176.66;1023257;28;20347;-71
2022/01/29 02:24:19;;;;;;;;;;;;;;;-0.55;100.00;97181.81;1027394;28;19922;-72
2022/01/29 02:24:50;;;;;;;;;;;;;;;-0.56;100.00;97185.34;1031220;28;19918;-71
2022/01/29 02:25:36;;;;;;;;;;;;;;;-0.55;100.00;97183.56;1030066;28;19972;-70
2022/01/29 02:26:06;;;;;;;;;;;;;;;-0.56;100.00;97179.41;1031303;28;20383;-71
2022/01/29 02:26:37;;;;;;;;;;;;;;;-0.56;100.00;97179.41;1035526;28;19921;-70
2022/01/29 02:27:07;;;;;;;;;;;;;;;-0.54;100.00;97177.44;1025288;28;20504;-70
2022/01/29 02:27:37;;;;;;;;;;;;;;;-0.53;100.00;97179.09;1023611;28;19923;-70
2022/01/29 02:28:11;;;;;;;;;;;;;;;-0.54;100.00;97178.28;1035394;28;19917;-72
2022/01/29 02:28:41;;;;;;;;;;;;;;;-0.54;100.00;97182.59;1027209;28;20012;-69
2022/01/29 02:29:13;;;;;;;;;;;;;;;-0.55;100.00;97186.16;1031336;28;19918;-70
2022/01/29 02:29:44;;;;;;;;;;;;;;;-0.55;100.00;97181.00;1035349;28;19921;-70
2022/01/29 02:30:16;;;;;;;;;;;;;;;-0.58;100.00;97182.09;1027375;28;19973;-70
2022/01/29 02:30:47;;;;;;;;;;;;;;;-0.57;100.00;97182.91;1023365;28;19950;-70
2022/01/29 02:31:18;;;;;;;;;;;;;;;-0.58;100.00;97183.88;1027505;28;20404;-70
2022/01/29 02:31:55;;;;;;;;;;;;;;;-0.59;100.00;97177.94;1019469;28;19931;-70
2022/01/29 02:32:25;;;;;;;;;;;;;;;-0.55;100.00;97181.00;1031169;28;20391;-70
2022/01/29 02:32:57;;;;;;;;;;;;;;;-0.57;100.00;97182.91;1030633;28;19984;-70
2022/01/29 02:33:28;;;;;;;;;;;;;;;-0.56;100.00;97181.97;1019241;29;20014;-70
2022/01/29 02:33:58;;;;;;;;;;;;;;;-0.57;100.00;97178.59;1027422;28;19921;-70
2022/01/29 02:34:29;;;;;;;;;;;;;;;-0.57;100.00;97182.91;1030964;28;19921;-70
2022/01/29 02:34:59;;;;;;;;;;;;;;;-0.57;100.00;97182.91;1031274;28;19981;-71
2022/01/29 02:35:30;;;;;;;;;;;;;;;-0.58;100.00;97181.31;1031258;28;19925;-69
2022/01/29 02:36:00;;;;;;;;;;;;;;;-0.58;100.00;97176.16;1023309;28;20487;-71
2022/01/29 02:36:30;;;;;;;;;;;;;;;-0.59;100.00;97187.44;1023376;29;19922;-70
2022/01/29 02:37:01;;;;;;;;;;;;;;;-0.61;100.00;97187.56;1027314;28;20005;-69
2022/01/29 02:37:31;;;;;;;;;;;;;;;-0.61;100.00;97190.16;1031302;28;19925;-71
2022/01/29 02:38:01;;;;;;;;;;;;;;;-0.60;100.00;97188.41;1031397;28;20289;-70
2022/01/29 02:38:32;;;;;;;;;;;;;;;-0.60;100.00;97178.91;1027347;28;19925;-70
2022/01/29 02:39:02;;;;;;;;;;;;;;;-0.58;100.00;97184.69;1027418;28;19914;-70
2022/01/29 02:39:33;;;;;;;;;;;;;;;-0.59;100.00;97185.66;1027102;28;19954;-70
2022/01/29 02:40:03;;;;;;;;;;;;;;;-0.57;100.00;97177.75;1031491;28;20087;-70
2022/01/29 02:40:38;;;;;;;;;;;;;;;-0.58;100.00;97182.09;1031366;28;20364;-72